Time;durP1;ratioP1;P1;durP2;ratioP2;P2;SDS_P1;SDS_P2;PMS_P1;PMS_P2;Temp;Humidity;BMP_temperature;BMP_pressure;BME280_temperature;BME280_humidity;BME280_pressure;Samples;Min_cycle;Max_cycle;Signal;HPM_P1;HPM_P2
2022/05/31 00:04:49;;;;;;;1.80;1.60;;;17.00;44.00;;;17.41;34.15;98250.94;4902896;28;115149;-92
2022/05/31 00:07:16;;;;;;;1.73;1.40;;;16.90;44.10;;;17.40;34.29;98254.09;4883625;28;124823;-90
2022/05/31 00:10:40;;;;;;;2.17;1.37;;;16.90;44.20;;;17.37;34.18;98255.66;4899912;28;123550;-90
2022/05/31 00:16:49;;;;;;;1.77;1.33;;;16.90;44.50;;;17.28;34.35;98245.91;4903738;28;115031;-78
2022/05/31 00:22:57;;;;;;;1.97;1.70;;;16.80;44.60;;;17.20;34.67;98245.78;4902182;28;126350;-85
2022/05/31 00:29:08;;;;;;;1.67;1.33;;;16.70;44.90;;;17.13;34.95;98250.41;4904438;28;114999;-86
2022/05/31 00:32:13;;;;;;;1.50;1.20;;;16.60;45.10;;;17.10;34.97;98245.56;4870740;28;123229;-88
2022/05/31 00:38:22;;;;;;;2.50;1.70;;;16.60;45.30;;;17.02;35.11;98233.44;4903351;28;116265;-79
2022/05/31 00:41:24;;;;;;;2.00;1.67;;;16.50;45.40;;;17.00;35.33;98246.97;4869951;28;115611;-87
2022/05/31 00:47:34;;;;;;;3.13;1.50;;;16.50;45.70;;;16.90;35.65;98233.59;4884459;28;124924;-90
2022/05/31 00:53:53;;;;;;;2.90;1.50;;;16.40;45.90;;;16.82;35.64;98241.06;4884167;28;114927;-86
2022/05/31 01:03:51;;;;;;;1.50;1.40;;;16.30;46.30;;;16.68;35.75;98240.72;4884643;28;115293;-78
2022/05/31 01:10:00;;;;;;;1.53;1.30;;;16.20;46.50;;;16.59;36.25;98231.75;4883839;28;125124;-82
2022/05/31 01:13:07;;;;;;;2.00;1.60;;;16.10;46.60;;;16.56;36.33;98241.66;4867241;28;123175;-80
2022/05/31 01:19:55;;;;;;;2.80;1.70;;;16.00;46.80;;;16.49;36.28;98244.28;4884461;28;115094;-79
2022/05/31 01:26:09;;;;;;;1.73;1.63;;;16.00;47.10;;;16.38;36.74;98243.25;4884074;28;124607;-86
2022/05/31 01:32:18;;;;;;;1.40;1.30;;;15.90;47.40;;;16.27;36.87;98243.81;4884576;28;114984;-88
2022/05/31 01:38:42;;;;;;;1.50;1.40;;;15.80;47.60;;;16.21;36.96;98231.34;4883778;28;124789;-83
2022/05/31 01:45:03;;;;;;;3.27;1.93;;;15.70;47.90;;;16.18;37.36;98240.44;4902718;28;115933;-78
2022/05/31 01:51:13;;;;;;;1.70;1.40;;;15.70;48.20;;;16.12;37.44;98239.13;4902571;28;124845;-78
2022/05/31 01:57:24;;;;;;;2.10;1.67;;;15.60;48.40;;;16.08;37.69;98241.00;4884091;28;114964;-79
2022/05/31 02:03:33;;;;;;;1.43;1.23;;;15.40;48.50;;;16.03;37.82;98239.28;4884013;28;124687;-83
2022/05/31 02:09:46;;;;;;;1.73;1.43;;;15.50;48.80;;;15.97;37.93;98228.81;4883966;28;115096;-81
2022/05/31 02:15:54;;;;;;;1.60;1.50;;;15.40;49.00;;;15.94;38.18;98243.47;4883488;28;124806;-83
2022/05/31 02:22:07;;;;;;;1.83;1.53;;;15.40;49.30;;;15.92;38.24;98231.84;4883694;28;114968;-76
2022/05/31 02:28:16;;;;;;;1.63;1.33;;;15.40;49.50;;;15.87;38.32;98230.16;4883517;28;124870;-83
2022/05/31 02:34:31;;;;;;;1.97;1.40;;;15.30;49.60;;;15.82;38.51;98231.22;4883677;28;114806;-88
2022/05/31 02:40:40;;;;;;;2.00;1.33;;;15.30;49.80;;;15.76;38.52;98238.25;4882626;28;124914;-77
2022/05/31 02:46:49;;;;;;;3.20;1.50;;;15.20;49.90;;;15.72;38.73;98237.38;4885440;28;115382;-78
2022/05/31 03:28:05;;;;;;;1.63;1.30;;;14.80;51.30;;;15.38;39.80;98236.88;5565290;23;98565;-82
2022/05/31 03:31:30;;;;;;;2.17;1.47;;;14.50;51.20;;;15.36;39.87;98239.19;4888384;28;114896;-91
2022/05/31 03:34:17;;;;;;;1.80;1.60;;;15.50;52.20;;;15.35;40.12;98247.94;4902261;28;114874;-83
2022/05/31 03:46:52;;;;;;;1.60;1.50;;;14.40;51.60;;;15.28;39.98;98242.97;4904999;28;115869;-80
2022/05/31 04:03:09;;;;;;;2.00;1.60;;;14.80;52.30;;;15.43;40.16;98242.19;5463001;23;98324;-89
2022/05/31 04:09:18;;;;;;;1.77;1.37;;;14.80;52.30;;;15.50;39.76;98238.78;4923100;28;114978;-90
2022/05/31 04:15:27;;;;;;;1.50;1.40;;;15.00;52.30;;;15.34;40.15;98244.34;4923103;28;124782;-85
2022/05/31 04:21:37;;;;;;;1.60;1.50;;;13.60;51.10;;;15.24;40.22;98236.50;4903772;28;116543;-85
2022/05/31 04:27:45;;;;;;;1.60;1.50;;;14.70;52.30;;;15.15;40.61;98228.34;4922533;28;124645;-85
2022/05/31 04:30:14;;;;;;;2.63;1.70;;;14.60;52.60;;;15.15;40.27;98231.13;4928894;28;115199;-92
2022/05/31 04:36:23;;;;;;;2.07;1.50;;;14.60;52.40;;;15.14;40.42;98223.13;4921837;28;125026;-91
2022/05/31 04:42:31;;;;;;;2.93;1.90;;;12.50;50.80;;;15.19;40.66;98217.28;4920690;28;116255;-92
2022/05/31 04:52:05;;;;;;;4.73;2.83;;;14.10;52.80;;;15.22;41.12;98227.72;5290860;23;124267;-91
2022/05/31 04:54:32;;;;;;;14.47;3.40;;;14.70;54.00;;;15.25;41.58;98235.34;4901298;28;113496;-90
2022/05/31 05:00:40;;;;;;;5.20;2.90;;;14.50;54.40;;;15.15;41.64;98225.56;4902370;28;125092;-91
2022/05/31 05:07:07;;;;;;;3.27;2.33;;;14.50;54.30;;;15.15;41.65;98233.06;4902702;28;115291;-90
2022/05/31 05:13:16;;;;;;;3.33;2.40;;;14.60;54.60;;;15.25;41.73;98225.00;4900935;28;125122;-91
2022/05/31 05:23:19;;;;;;;2.27;2.07;;;14.70;54.60;;;15.35;41.64;98217.31;4897647;28;114993;-90
2022/05/31 05:33:10;;;;;;;3.63;2.30;;;12.90;53.10;;;15.59;41.69;98224.69;4901158;28;115368;-91
2022/05/31 05:36:33;;;;;;;2.93;2.50;;;14.90;55.60;;;15.62;41.53;98205.25;4894743;28;114735;-89
2022/05/31 05:49:34;;;;;;;5.30;2.40;;;15.20;55.30;;;15.95;41.00;98217.19;4918802;28;115889;-92
2022/05/31 06:03:24;;;;;;;2.70;2.20;;;15.20;54.90;;;16.11;41.00;98216.00;4902046;28;115012;-90
2022/05/31 06:06:31;;;;;;;6.13;2.80;;;16.30;56.20;;;16.24;40.96;98211.09;4884757;28;123728;-89
2022/05/31 06:16:30;;;;;;;3.33;2.10;;;15.70;54.80;;;16.58;40.46;98217.00;4883676;28;114864;-83
2022/05/31 06:22:43;;;;;;;4.40;2.60;;;16.00;54.60;;;16.65;40.33;98214.34;4898740;28;124205;-90
2022/05/31 06:28:51;;;;;;;5.50;2.50;;;16.10;54.40;;;16.83;40.26;98200.81;4905636;28;115043;-90
2022/05/31 06:42:24;;;;;;;2.17;1.83;;;16.40;54.30;;;17.15;39.86;98211.78;4916240;28;115019;-91
2022/05/31 06:45:28;;;;;;;2.73;2.10;;;16.40;54.30;;;17.23;39.69;98210.72;4891627;28;123097;-92
2022/05/31 06:47:55;;;;;;;2.00;1.80;;;16.50;54.30;;;17.32;39.83;98219.66;4901313;28;123632;-92
2022/05/31 06:50:23;;;;;;;3.60;2.40;;;16.60;54.20;;;17.39;39.52;98216.19;4867036;28;115527;-92
2022/05/31 06:58:20;;;;;;;3.73;2.40;;;16.80;54.10;;;17.58;39.46;98213.31;4889690;28;124484;-93
2022/05/31 07:00:46;;;;;;;3.90;2.40;;;16.90;54.20;;;17.67;39.44;98208.28;4883990;28;113824;-91
2022/05/31 07:03:13;;;;;;;3.00;2.30;;;16.90;54.10;;;17.75;39.51;98208.41;4888079;28;114748;-91
2022/05/31 07:05:40;;;;;;;3.40;2.63;;;17.00;54.80;;;17.80;39.42;98210.91;4868547;28;121706;-91
2022/05/31 07:08:44;;;;;;;4.40;2.70;;;17.00;54.20;;;17.88;39.42;98207.03;4888232;28;123627;-93
2022/05/31 07:11:34;;;;;;;3.90;2.67;;;17.10;54.40;;;18.01;39.15;98202.84;4889726;28;114053;-93
2022/05/31 07:14:39;;;;;;;4.60;3.07;;;17.20;54.30;;;18.14;38.97;98200.66;4778997;29;113043;-93
2022/05/31 07:17:05;;;;;;;4.77;2.80;;;17.40;54.30;;;18.28;38.80;98191.66;4787668;29;124079;-93
2022/05/31 07:20:10;;;;;;;5.23;2.50;;;17.50;54.10;;;18.36;38.53;98182.16;4773672;29;123417;-92
2022/05/31 07:22:39;;;;;;;2.40;1.80;;;17.60;54.00;;;18.47;38.52;98185.91;4786577;29;114048;-92
2022/05/31 07:25:07;;;;;;;2.13;1.93;;;17.70;53.90;;;18.60;38.39;98180.88;4790897;29;114144;-91
2022/05/31 07:27:36;;;;;;;3.33;2.27;;;17.80;53.80;;;18.71;38.41;98181.00;4770231;29;124158;-92
2022/05/31 07:30:05;;;;;;;3.30;2.40;;;17.90;53.70;;;18.78;38.13;98175.53;4783109;29;123583;-92
2022/05/31 07:32:31;;;;;;;2.60;2.40;;;18.00;53.60;;;18.81;38.26;98177.56;4789574;29;112177;-92
2022/05/31 07:34:58;;;;;;;2.83;2.30;;;18.10;53.60;;;18.87;38.23;98172.41;4757164;29;113354;-92
2022/05/31 07:37:43;;;;;;;5.20;2.50;;;18.10;53.50;;;18.91;38.35;98179.69;4784544;29;123346;-92
2022/05/31 07:40:10;;;;;;;3.27;2.27;;;18.20;53.60;;;18.99;38.42;98174.94;4784176;29;123671;-91
2022/05/31 07:42:37;;;;;;;3.30;2.63;;;18.20;53.60;;;19.07;38.33;98184.22;4769532;29;115400;-93
2022/05/31 07:45:05;;;;;;;8.30;3.20;;;18.30;53.70;;;19.13;38.54;98182.69;4782330;29;114111;-93
2022/05/31 07:47:32;;;;;;;6.87;2.70;;;18.40;53.80;;;19.16;38.29;98193.94;4783718;29;123542;-90
2022/05/31 07:49:58;;;;;;;4.40;2.80;;;18.40;53.70;;;19.20;38.30;98188.34;4781893;29;122829;-93
2022/05/31 07:52:25;;;;;;;3.83;2.70;;;18.50;54.40;;;19.26;38.11;98184.00;4852856;28;113849;-93
2022/05/31 07:54:54;;;;;;;4.00;2.50;;;18.60;53.80;;;19.36;38.36;98186.09;4873982;28;113560;-92
2022/05/31 08:00:08;;;;;;;3.03;2.30;;;18.80;53.90;;;19.54;38.10;98177.06;4888275;28;124017;-94
2022/05/31 08:02:34;;;;;;;2.83;2.03;;;18.80;53.80;;;19.59;38.09;98173.91;4893207;28;114132;-93
2022/05/31 08:05:01;;;;;;;2.50;2.13;;;18.80;53.60;;;19.66;37.56;98168.38;4880286;28;113431;-92
2022/05/31 08:08:05;;;;;;;2.00;1.70;;;18.90;53.50;;;19.72;37.78;98172.44;4857500;28;123783;-94
2022/05/31 08:10:33;;;;;;;2.20;1.77;;;19.00;53.40;;;19.84;37.76;98171.31;4874211;28;123644;-91
2022/05/31 08:13:01;;;;;;;3.87;1.97;;;19.10;53.40;;;19.94;37.41;98166.97;4874188;28;114287;-93
2022/05/31 08:15:27;;;;;;;1.80;1.30;;;19.20;53.20;;;20.00;36.87;98165.41;4870066;28;112821;-91
2022/05/31 08:17:57;;;;;;;1.80;1.53;;;19.20;52.60;;;20.03;36.67;98165.44;4842186;28;97702;-91
2022/05/31 08:20:24;;;;;;;1.70;1.37;;;19.30;52.40;;;20.08;36.74;98167.06;4876400;28;123045;-93
2022/05/31 08:22:52;;;;;;;1.40;1.30;;;19.30;52.20;;;20.14;36.77;98154.28;4871792;28;113907;-92
2022/05/31 08:25:19;;;;;;;2.53;1.80;;;19.40;52.10;;;20.22;36.53;98160.72;4876464;28;113130;-91
2022/05/31 08:27:46;;;;;;;1.40;1.30;;;19.50;52.00;;;20.29;36.44;98152.34;4874082;28;124171;-91
2022/05/31 08:30:12;;;;;;;1.77;1.23;;;19.60;52.00;;;20.37;36.25;98156.81;4872892;28;123022;-92
2022/05/31 08:32:39;;;;;;;2.27;1.50;;;19.60;51.80;;;20.43;36.11;98149.59;4876806;28;114483;-93
2022/05/31 08:35:07;;;;;;;2.37;1.20;;;19.70;51.70;;;20.48;36.21;98140.00;4863948;28;114764;-92
2022/05/31 08:37:34;;;;;;;1.43;1.23;;;19.80;51.70;;;20.56;36.16;98144.47;4825261;28;125133;-92
2022/05/31 08:40:01;;;;;;;2.10;1.57;;;19.80;51.60;;;20.62;36.04;98137.28;4852258;28;123213;-93
2022/05/31 08:42:56;;;;;;;1.53;1.43;;;19.90;51.50;;;20.68;35.53;98138.50;4878339;28;114202;-92
2022/05/31 08:45:52;;;;;;;1.93;1.20;;;20.00;51.30;;;20.74;35.72;98131.31;4869313;28;113039;-92
2022/05/31 08:48:34;;;;;;;2.10;1.60;;;20.00;51.00;;;20.76;35.45;98128.09;4873577;28;123548;-90
2022/05/31 08:57:06;;;;;;;1.30;1.00;;;20.20;50.60;;;20.98;35.18;98145.00;4861780;28;114226;-90
2022/05/31 08:59:57;;;;;;;1.93;1.40;;;20.30;50.50;;;21.07;35.18;98145.44;4854623;28;124557;-93
2022/05/31 09:02:55;;;;;;;1.97;1.10;;;20.40;50.50;;;21.14;35.17;98143.44;4872935;28;123135;-94
2022/05/31 09:05:30;;;;;;;2.13;1.30;;;20.50;50.40;;;21.23;34.87;98139.44;4870408;28;113902;-93
2022/05/31 09:08:16;;;;;;;3.00;1.40;;;20.50;50.40;;;21.31;34.93;98146.66;4874631;28;113033;-92
2022/05/31 09:10:51;;;;;;;1.83;1.63;;;20.60;50.10;;;21.38;34.69;98146.66;4858546;28;122274;-90
2022/05/31 09:13:33;;;;;;;1.53;1.30;;;20.70;50.00;;;21.43;34.66;98142.66;4876101;28;123086;-91
2022/05/31 09:16:38;;;;;;;1.80;1.30;;;20.70;49.90;;;21.51;34.54;98147.09;4877228;28;114155;-93
2022/05/31 09:19:12;;;;;;;2.33;1.33;;;20.80;49.70;;;21.56;34.29;98138.25;4873527;28;113010;-91
2022/05/31 09:21:46;;;;;;;1.47;1.33;;;20.90;49.70;;;21.62;34.43;98139.44;4860142;28;124591;-91
2022/05/31 09:24:19;;;;;;;2.10;1.40;;;20.90;49.60;;;21.66;34.06;98139.47;4845282;28;123110;-92
2022/05/31 09:27:02;;;;;;;1.60;1.20;;;21.00;49.50;;;21.71;34.35;98134.22;4869727;28;115378;-91
2022/05/31 09:29:39;;;;;;;2.80;1.53;;;21.10;49.40;;;21.79;34.25;98127.38;4870402;28;114397;-93
2022/05/31 09:32:15;;;;;;;2.23;1.43;;;21.10;49.50;;;21.87;34.17;98138.59;4878287;28;123625;-93
2022/05/31 09:34:56;;;;;;;2.53;1.30;;;21.20;49.30;;;21.94;34.07;98130.16;4867937;28;123847;-90
2022/05/31 09:37:47;;;;;;;4.03;1.57;;;21.30;49.30;;;22.03;34.06;98128.56;4851933;28;114447;-94
2022/05/31 09:41:08;;;;;;;1.90;1.50;;;21.30;49.30;;;22.13;34.04;98131.72;4873353;28;114203;-92
2022/05/31 09:44:00;;;;;;;1.43;1.30;;;21.50;49.30;;;22.21;33.91;98125.69;4866439;28;123591;-91
2022/05/31 09:47:11;;;;;;;2.80;1.40;;;21.50;49.20;;;22.34;33.86;98126.06;4867207;28;123603;-92
2022/05/31 09:49:45;;;;;;;1.70;1.27;;;21.70;49.30;;;22.40;33.45;98118.78;4814877;29;114671;-92
2022/05/31 09:52:31;;;;;;;1.83;1.60;;;21.70;48.70;;;22.44;33.50;98116.78;4867512;28;113909;-90
2022/05/31 09:58:08;;;;;;;2.33;1.20;;;21.90;48.20;;;22.53;32.98;98118.34;4856509;28;123747;-94
2022/05/31 10:00:38;;;;;;;2.07;1.50;;;21.90;47.70;;;22.59;32.66;98119.50;4873485;28;114246;-90
2022/05/31 10:03:13;;;;;;;1.50;1.23;;;22.00;47.40;;;22.63;32.26;98107.03;4846745;28;114965;-91
2022/05/31 10:05:42;;;;;;;1.50;1.40;;;22.00;47.00;;;22.68;32.05;98115.06;4875954;28;124762;-93
2022/05/31 10:08:33;;;;;;;1.43;1.30;;;22.10;46.80;;;22.74;32.21;98118.25;4883139;28;123199;-91
2022/05/31 10:11:11;;;;;;;2.10;1.67;;;22.10;46.60;;;22.76;31.87;98101.75;4878561;28;113511;-92
2022/05/31 10:13:53;;;;;;;4.40;1.83;;;22.20;46.00;;;22.80;31.40;98105.31;4881091;28;113858;-93
2022/05/31 10:16:30;;;;;;;2.57;1.40;;;22.20;45.80;;;22.86;31.82;98106.50;4862352;28;123239;-92
2022/05/31 10:19:01;;;;;;;1.40;1.20;;;22.30;46.20;;;22.90;31.59;98104.47;4863331;28;123390;-92
2022/05/31 10:21:41;;;;;;;3.17;1.73;;;22.30;46.10;;;22.98;31.42;98093.97;4871263;28;115369;-90
2022/05/31 10:24:19;;;;;;;1.60;1.30;;;22.40;45.70;;;23.03;31.36;98101.19;4868569;28;114559;-91
2022/05/31 10:27:10;;;;;;;1.63;1.53;;;22.40;46.00;;;23.05;31.14;98098.75;4875842;28;123719;-92
2022/05/31 10:29:52;;;;;;;2.17;1.70;;;22.50;45.20;;;23.06;31.12;98100.38;4865625;28;122777;-91
2022/05/31 10:32:27;;;;;;;1.93;1.20;;;22.50;45.20;;;23.09;30.93;98089.06;4866060;28;115127;-93
2022/05/31 10:35:19;;;;;;;3.20;1.10;;;22.50;45.30;;;23.15;30.90;98100.69;4884582;28;113940;-91
2022/05/31 10:38:03;;;;;;;2.20;1.40;;;22.60;45.50;;;23.20;31.24;98105.88;4859012;28;123338;-92
2022/05/31 10:40:52;;;;;;;1.80;1.30;;;22.60;45.70;;;23.20;31.76;98122.00;4878119;28;123881;-93
2022/05/31 10:43:52;;;;;;;5.77;1.63;;;22.60;46.30;;;23.12;32.19;98116.41;4879571;28;114495;-92
2022/05/31 10:46:29;;;;;;;1.70;1.40;;;22.60;46.50;;;23.12;32.44;98104.34;4863345;28;113679;-92
2022/05/31 10:49:04;;;;;;;2.93;1.70;;;22.60;46.80;;;23.12;32.67;98105.13;4876229;28;124151;-92
2022/05/31 10:52:17;;;;;;;8.80;2.63;;;22.60;47.00;;;23.11;32.39;98108.38;4867968;28;123989;-93
2022/05/31 10:55:33;;;;;;;3.10;1.80;;;22.60;46.90;;;23.09;32.29;98108.78;4873123;28;113225;-92
2022/05/31 10:58:26;;;;;;;3.73;2.17;;;22.60;47.00;;;23.10;32.51;98129.31;4875255;28;113637;-91
2022/05/31 11:01:19;;;;;;;1.57;1.47;;;22.60;46.90;;;23.09;32.43;98105.97;4840067;29;124049;-93
2022/05/31 11:04:05;;;;;;;2.33;1.47;;;22.60;46.80;;;23.13;32.48;98111.56;4820926;29;123897;-93
2022/05/31 11:06:58;;;;;;;2.43;1.70;;;22.60;46.80;;;23.17;32.41;98115.19;4838112;29;113544;-92
2022/05/31 11:13:44;;;;;;;4.07;1.63;;;22.70;46.80;;;23.27;32.24;98114.31;4815721;29;124769;-92
2022/05/31 11:16:36;;;;;;;1.70;1.60;;;22.70;46.90;;;23.35;32.17;98107.38;4842738;29;124237;-94
2022/05/31 11:19:33;;;;;;;2.00;1.50;;;22.80;46.60;;;23.41;31.85;98107.75;4817851;29;114080;-92
2022/05/31 11:22:26;;;;;;;1.60;1.30;;;22.90;46.50;;;23.46;31.63;98114.97;4824648;29;115376;-91
2022/05/31 11:25:28;;;;;;;1.73;1.40;;;22.90;46.00;;;23.47;31.28;98111.72;4839861;29;123191;-91
2022/05/31 11:28:36;;;;;;;2.60;1.67;;;22.90;45.70;;;23.48;31.09;98116.16;4837590;29;124530;-91
2022/05/31 11:31:28;;;;;;;2.20;1.50;;;23.00;45.10;;;23.53;31.10;98115.69;4825714;28;114020;-93
2022/05/31 11:35:00;;;;;;;2.07;1.80;;;23.00;45.10;;;23.57;30.68;98105.19;4869306;28;114474;-88
2022/05/31 11:38:10;;;;;;;1.70;1.50;;;23.10;44.40;;;23.72;30.61;98107.88;4758242;29;123638;-90
2022/05/31 11:40:58;;;;;;;5.23;2.23;;;23.20;44.20;;;23.86;30.09;98110.59;4862806;28;124106;-88
2022/05/31 11:43:58;;;;;;;3.20;1.80;;;23.30;44.10;;;24.01;29.96;98114.84;4879180;28;113912;-84
2022/05/31 11:46:44;;;;;;;2.40;1.77;;;23.40;44.20;;;24.17;29.28;98107.81;4879004;28;114033;-86
2022/05/31 11:49:48;;;;;;;6.93;1.90;;;23.60;43.40;;;24.24;29.00;98114.19;4874358;28;124740;-87
2022/05/31 11:52:42;;;;;;;3.63;1.90;;;23.60;42.60;;;24.32;29.00;98105.66;4874493;28;123776;-87
2022/05/31 11:55:26;;;;;;;2.30;1.90;;;23.70;42.50;;;24.43;28.75;98109.13;4876967;28;114266;-85
2022/05/31 11:58:10;;;;;;;2.83;1.60;;;23.90;42.30;;;24.52;28.51;98103.78;4875526;28;114283;-88
2022/05/31 12:00:54;;;;;;;2.77;1.70;;;23.90;41.80;;;24.61;27.59;98111.75;4859152;28;124220;-87
2022/05/31 12:03:32;;;;;;;1.70;1.60;;;24.00;40.60;;;24.69;27.51;98114.06;4865500;28;124059;-90
2022/05/31 12:06:28;;;;;;;2.17;1.30;;;24.00;40.00;;;24.80;27.31;98113.13;4844490;28;114261;-88
2022/05/31 12:09:15;;;;;;;1.87;1.40;;;24.20;39.90;;;24.84;27.01;98116.69;4873249;28;114499;-87
2022/05/31 12:11:59;;;;;;;1.77;1.50;;;24.30;40.10;;;24.86;26.92;98111.41;4872479;28;123498;-87
2022/05/31 12:14:27;;;;;;;2.00;1.63;;;24.30;39.60;;;24.83;26.89;98103.78;4856011;28;123928;-87
2022/05/31 12:16:58;;;;;;;3.40;1.23;;;24.30;39.30;;;24.80;27.41;98111.09;4872487;28;115270;-89
2022/05/31 12:19:53;;;;;;;2.67;1.70;;;24.40;39.90;;;24.82;27.08;98107.81;4874485;28;114913;-87
2022/05/31 12:22:29;;;;;;;2.27;1.33;;;24.40;39.50;;;24.78;26.84;98104.25;4857564;28;123253;-88
2022/05/31 12:25:21;;;;;;;2.07;1.60;;;24.30;39.10;;;24.83;26.91;98112.28;4853196;28;124737;-87
2022/05/31 12:28:05;;;;;;;8.20;1.93;;;24.40;39.50;;;24.92;26.59;98109.69;4858211;28;114159;-87
2022/05/31 12:30:51;;;;;;;3.37;1.80;;;24.50;38.80;;;24.97;26.38;98100.75;4874606;28;114227;-87
2022/05/31 12:33:41;;;;;;;2.20;1.53;;;24.50;38.60;;;24.93;25.85;98111.28;4850749;28;124277;-88
2022/05/31 12:36:10;;;;;;;2.53;1.40;;;24.50;37.80;;;24.88;26.23;98104.13;4874803;28;124401;-88
2022/05/31 12:38:51;;;;;;;3.00;1.50;;;24.40;38.20;;;24.87;25.50;98104.53;4832783;28;114129;-89
2022/05/31 12:41:43;;;;;;;1.77;1.43;;;24.40;37.60;;;24.83;26.47;98103.78;4863253;28;114533;-89
2022/05/31 12:44:33;;;;;;;1.80;1.57;;;24.40;38.10;;;24.86;26.33;98100.91;4873193;28;123943;-87
2022/05/31 12:47:30;;;;;;;1.97;1.50;;;24.40;38.20;;;24.95;26.26;98106.03;4835199;28;123017;-88
2022/05/31 12:50:04;;;;;;;2.57;1.67;;;24.50;38.00;;;24.99;26.21;98115.25;4846878;28;113702;-89
2022/05/31 12:55:25;;;;;;;4.07;1.70;;;24.50;38.20;;;25.01;25.92;98106.34;4875340;28;124933;-85
2022/05/31 12:58:44;;;;;;;3.40;1.53;;;24.50;37.90;;;25.02;26.17;98108.75;4871787;28;123204;-89
2022/05/31 13:01:10;;;;;;;2.13;1.43;;;24.50;38.20;;;25.19;26.12;98100.44;4845555;28;116499;-87
2022/05/31 13:03:43;;;;;;;2.40;1.50;;;24.60;38.20;;;25.35;25.85;98114.72;4872157;28;114091;-87
2022/05/31 13:06:37;;;;;;;3.67;1.30;;;24.70;37.80;;;25.45;25.79;98101.66;4871335;28;124141;-87
2022/05/31 13:09:38;;;;;;;3.77;1.27;;;24.80;37.70;;;25.56;25.71;98103.06;4845132;28;124055;-88
2022/05/31 13:21:03;;;;;;;3.00;1.33;;;25.20;36.40;;;25.71;24.39;98114.94;4853861;28;125431;-87
2022/05/31 13:23:38;;;;;;;3.77;1.40;;;25.20;36.30;;;25.67;24.58;98113.41;4867784;28;113823;-89
2022/05/31 13:26:10;;;;;;;2.13;1.47;;;25.20;35.70;;;25.61;24.35;98110.25;4870463;28;113946;-88
2022/05/31 13:28:49;;;;;;;1.93;1.33;;;25.20;35.50;;;25.54;24.33;98111.16;4841763;28;124094;-87
2022/05/31 13:31:23;;;;;;;8.20;2.03;;;25.10;35.50;;;25.51;24.29;98109.19;4853236;28;124237;-88
2022/05/31 13:34:08;;;;;;;4.30;1.57;;;25.10;35.10;;;25.51;24.05;98114.88;4851275;28;114972;-87
2022/05/31 13:36:45;;;;;;;2.33;1.40;;;25.10;34.90;;;25.49;24.58;98111.66;4862153;28;114289;-86
2022/05/31 13:39:16;;;;;;;2.20;1.20;;;25.10;35.10;;;25.50;24.30;98112.47;4868959;28;124050;-86
2022/05/31 13:41:51;;;;;;;4.10;1.50;;;25.10;35.30;;;25.46;23.88;98109.69;4873262;28;122890;-88
2022/05/31 13:44:28;;;;;;;2.07;1.50;;;25.10;34.80;;;25.43;24.30;98110.56;4856848;28;115321;-88
2022/05/31 13:47:00;;;;;;;4.53;1.40;;;25.10;34.90;;;25.44;24.15;98117.84;4857456;28;114165;-89
2022/05/31 13:49:39;;;;;;;1.57;1.30;;;25.00;34.70;;;25.49;24.37;98105.22;4870846;28;124216;-87
2022/05/31 13:52:25;;;;;;;2.10;1.43;;;25.00;34.70;;;25.49;24.18;98108.81;4870429;28;124034;-88
2022/05/31 13:54:57;;;;;;;3.10;1.50;;;25.10;34.90;;;25.60;24.30;98102.19;4870712;28;114170;-86
2022/05/31 13:57:24;;;;;;;2.60;2.37;;;25.10;35.00;;;25.64;24.13;98102.94;4857219;28;113825;-88
2022/05/31 13:59:57;;;;;;;4.17;1.73;;;25.10;34.80;;;25.67;24.30;98102.88;4870082;28;124317;-89
2022/05/31 14:02:49;;;;;;;2.40;1.30;;;25.10;34.80;;;25.75;23.73;98097.88;4873016;28;123805;-85
2022/05/31 14:05:28;;;;;;;3.00;1.50;;;25.20;34.70;;;25.83;23.47;98098.56;4874591;28;115409;-88
2022/05/31 14:07:55;;;;;;;4.87;1.70;;;25.20;34.40;;;25.90;23.04;98102.09;4856648;28;114893;-87
2022/05/31 14:10:26;;;;;;;2.03;1.50;;;25.30;33.80;;;25.93;23.34;98095.56;4839066;29;123420;-88
2022/05/31 14:13:00;;;;;;;2.10;1.50;;;25.30;34.30;;;26.03;23.03;98095.78;4869628;28;123811;-87
2022/05/31 14:15:34;;;;;;;2.50;1.53;;;25.40;33.90;;;26.04;23.14;98100.22;4848292;28;113914;-87
2022/05/31 14:18:13;;;;;;;1.87;1.47;;;25.50;33.90;;;26.03;23.69;98101.44;4870975;28;114068;-86
2022/05/31 14:20:43;;;;;;;2.33;1.40;;;25.50;34.00;;;26.00;23.18;98080.47;4853899;28;124613;-86
2022/05/31 14:23:24;;;;;;;1.50;1.40;;;25.50;33.80;;;25.99;23.62;98076.84;4871225;28;124127;-86
2022/05/31 14:25:52;;;;;;;3.60;2.00;;;25.50;34.00;;;26.06;23.63;98083.59;4853510;28;114241;-88
2022/05/31 14:28:26;;;;;;;2.03;1.50;;;25.50;33.90;;;26.17;23.70;98092.69;4839875;28;113275;-88
2022/05/31 14:30:59;;;;;;;1.53;1.43;;;25.60;33.90;;;26.31;23.24;98095.22;4866255;28;124079;-88
2022/05/31 14:33:34;;;;;;;4.90;1.80;;;25.70;34.10;;;26.32;23.69;98091.16;4848378;28;123008;-85
2022/05/31 14:36:02;;;;;;;2.13;1.70;;;25.70;34.00;;;26.33;23.38;98100.44;4854727;28;114412;-85
2022/05/31 14:38:42;;;;;;;2.03;1.33;;;25.80;34.10;;;26.41;23.61;98082.88;4847251;28;114870;-86
2022/05/31 14:41:26;;;;;;;1.60;1.50;;;25.80;34.00;;;26.55;23.21;98093.13;4853924;28;123855;-86
2022/05/31 14:44:02;;;;;;;9.40;1.57;;;26.00;34.00;;;26.58;22.79;98082.97;4874047;28;123080;-86
2022/05/31 14:46:38;;;;;;;3.00;1.30;;;26.00;33.60;;;26.58;22.67;98083.75;4855461;28;113843;-85
2022/05/31 14:49:09;;;;;;;2.17;1.40;;;26.10;33.30;;;26.56;22.55;98077.72;4874891;28;114518;-86
2022/05/31 14:51:42;;;;;;;1.90;1.30;;;26.10;32.60;;;26.47;22.81;98088.03;4871686;28;123947;-87
2022/05/31 14:54:39;;;;;;;1.87;1.30;;;26.00;32.70;;;26.32;23.00;98085.47;4851181;28;122992;-86
2022/05/31 14:58:36;;;;;;;1.50;1.30;;;26.00;32.60;;;26.24;22.69;98095.34;4840728;28;114332;-87
2022/05/31 15:00:15;;;;;;;2.40;1.60;;;25.90;32.80;;;26.13;22.99;98094.78;4874403;28;114780;-88
2022/05/31 15:02:43;;;;;;;1.73;1.10;;;25.80;32.80;;;26.03;23.09;98087.28;4855917;28;124597;-87
2022/05/31 15:05:11;;;;;;;2.20;1.23;;;25.70;32.70;;;25.92;23.07;98088.28;4871773;28;124470;-87
2022/05/31 15:07:56;;;;;;;1.93;1.50;;;25.60;32.60;;;25.81;23.01;98087.66;4852075;28;114636;-85
2022/05/31 15:10:51;;;;;;;1.90;1.13;;;25.50;32.80;;;25.68;23.19;98086.69;4874155;28;113977;-86
2022/05/31 15:18:57;;;;;;;1.30;1.07;;;25.20;33.20;;;25.50;23.64;98089.84;4879361;28;114777;-86
2022/05/31 15:21:28;;;;;;;2.40;1.23;;;25.20;33.30;;;25.40;23.46;98088.00;4850936;28;113161;-87
2022/05/31 15:23:55;;;;;;;1.30;1.10;;;25.10;33.30;;;25.33;23.48;98086.06;4858340;28;124166;-87
2022/05/31 15:26:22;;;;;;;1.97;1.17;;;25.00;33.20;;;25.26;23.66;98080.56;4875947;28;123722;-87
2022/05/31 15:28:52;;;;;;;1.27;1.17;;;24.90;33.40;;;25.20;23.73;98088.72;4873401;28;113557;-90
2022/05/31 15:31:34;;;;;;;3.27;1.20;;;24.90;33.70;;;25.16;23.98;98096.44;4874775;28;113881;-87
2022/05/31 15:34:02;;;;;;;6.63;1.37;;;24.80;33.90;;;25.15;24.00;98089.22;4884734;28;124026;-88
2022/05/31 15:36:30;;;;;;;2.30;1.23;;;26.10;35.00;;;25.12;24.10;98090.84;4897045;28;124376;-89
2022/05/31 15:38:59;;;;;;;1.93;1.47;;;24.70;34.70;;;25.10;24.32;98092.50;4866774;28;113872;-90
2022/05/31 15:41:28;;;;;;;1.40;1.10;;;24.70;34.10;;;25.07;24.13;98088.47;4875404;28;113985;-86
2022/05/31 15:44:00;;;;;;;2.10;1.23;;;24.70;34.20;;;25.05;24.22;98092.97;4874192;28;124111;-90
2022/05/31 15:46:31;;;;;;;1.40;1.10;;;24.60;34.20;;;25.01;24.06;98093.03;4870237;28;124276;-90
2022/05/31 15:48:58;;;;;;;3.10;1.37;;;25.60;34.90;;;24.96;24.23;98093.50;4872727;28;115054;-89
2022/05/31 15:51:30;;;;;;;2.93;1.63;;;24.50;34.00;;;24.91;24.28;98091.16;4843074;28;115300;-89
2022/05/31 15:54:05;;;;;;;2.33;1.30;;;24.50;34.30;;;24.90;24.24;98098.03;4842730;28;123283;-89
2022/05/31 15:56:33;;;;;;;2.40;1.30;;;24.50;34.40;;;24.85;24.40;98095.66;4841629;28;124046;-89
2022/05/31 15:58:59;;;;;;;2.00;1.37;;;24.40;34.10;;;24.78;24.43;98092.97;4870447;28;115001;-91